Time;durP1;ratioP1;P1;durP2;ratioP2;P2;SDS_P1;SDS_P2;PMS_P1;PMS_P2;Temp;Humidity;BMP_temperature;BMP_pressure;BME280_temperature;BME280_humidity;BME280_pressure;Samples;Min_cycle;Max_cycle;Signal;HPM_P1;HPM_P2
2022/12/18 00:02:23;;;;;;;;;;;-7.30;99.90;;;;;;5051217;28;19924;-64
2022/12/18 00:04:50;;;;;;;;;;;-7.20;99.90;;;;;;5051587;28;19924;-64
2022/12/18 00:07:18;;;;;;;;;;;-7.10;99.90;;;;;;5051218;28;19925;-63
2022/12/18 00:09:47;;;;;;;;;;;-7.00;99.90;;;;;;5050745;28;19931;-64
2022/12/18 00:12:15;;;;;;;;;;;-7.00;99.90;;;;;;5042913;28;19931;-63
2022/12/18 00:14:47;;;;;;;;;;;-7.00;99.90;;;;;;5051180;28;19925;-63
2022/12/18 00:17:15;;;;;;;;;;;-7.10;99.90;;;;;;5051619;28;19925;-63
2022/12/18 00:19:43;;;;;;;;;;;-7.10;99.90;;;;;;5056253;28;20317;-64
2022/12/18 00:22:10;;;;;;;;;;;-7.20;99.90;;;;;;5054889;28;19932;-64
2022/12/18 00:24:38;;;;;;;;;;;-7.30;99.90;;;;;;5034481;22;20021;-62
2022/12/18 00:27:07;;;;;;;;;;;-7.40;99.90;;;;;;4996227;28;19936;-63
2022/12/18 00:29:35;;;;;;;;;;;-7.50;99.90;;;;;;5001109;28;19929;-63
2022/12/18 00:32:03;;;;;;;;;;;-7.60;99.90;;;;;;5011595;28;19931;-63
2022/12/18 00:34:30;;;;;;;;;;;-7.70;99.90;;;;;;5011692;28;19948;-63
2022/12/18 00:36:58;;;;;;;;;;;-7.60;99.90;;;;;;5011549;28;19930;-63
2022/12/18 00:39:26;;;;;;;;;;;-7.60;99.90;;;;;;5011519;28;19925;-63
2022/12/18 00:44:41;;;;;;;;;;;-7.70;99.90;;;;;;5011733;28;19925;-63
2022/12/18 00:47:08;;;;;;;;;;;-7.60;99.90;;;;;;5011690;28;19932;-62
2022/12/18 00:49:36;;;;;;;;;;;-7.70;99.90;;;;;;5004529;28;19932;-62
2022/12/18 00:52:04;;;;;;;;;;;-7.70;99.90;;;;;;5011399;28;19931;-62
2022/12/18 00:54:32;;;;;;;;;;;-7.70;99.90;;;;;;5011406;28;19960;-66
2022/12/18 00:56:59;;;;;;;;;;;-7.60;99.90;;;;;;5011558;28;19925;-63
2022/12/18 00:59:27;;;;;;;;;;;-7.50;99.90;;;;;;5011433;28;19929;-62
2022/12/18 01:01:56;;;;;;;;;;;-7.50;99.90;;;;;;5011109;28;19972;-62
2022/12/18 01:04:24;;;;;;;;;;;-7.60;99.90;;;;;;5011351;28;20017;-63
2022/12/18 01:06:52;;;;;;;;;;;-7.70;99.90;;;;;;5013740;28;19929;-62
2022/12/18 01:09:19;;;;;;;;;;;-7.70;99.90;;;;;;5014728;28;19925;-62
2022/12/18 01:11:47;;;;;;;;;;;-7.70;99.90;;;;;;5014495;28;19932;-63
2022/12/18 01:14:15;;;;;;;;;;;-7.70;99.90;;;;;;5014890;28;19932;-64
2022/12/18 01:16:42;;;;;;;;;;;-7.70;99.90;;;;;;5015242;28;20306;-63
2022/12/18 01:19:12;;;;;;;;;;;-7.80;99.90;;;;;;5014077;28;19987;-63
2022/12/18 01:21:40;;;;;;;;;;;-7.80;99.90;;;;;;5014353;28;19932;-63
2022/12/18 01:24:08;;;;;;;;;;;-7.90;99.90;;;;;;5014367;28;20398;-64
2022/12/18 01:26:35;;;;;;;;;;;-7.90;99.90;;;;;;5014809;28;19926;-62
2022/12/18 01:29:03;;;;;;;;;;;-7.90;99.90;;;;;;5014847;28;19926;-63
2022/12/18 01:31:31;;;;;;;;;;;-7.90;99.90;;;;;;5014220;28;19948;-63
2022/12/18 01:34:01;;;;;;;;;;;-7.90;99.90;;;;;;5014346;28;19926;-63
2022/12/18 01:36:31;;;;;;;;;;;-7.90;99.90;;;;;;5014262;28;20383;-62
2022/12/18 01:39:00;;;;;;;;;;;-7.90;99.90;;;;;;5014649;28;19926;-63
2022/12/18 01:42:01;;;;;;;;;;;-7.90;99.90;;;;;;5013995;28;19933;-62
2022/12/18 01:44:35;;;;;;;;;;;-7.90;99.90;;;;;;5014021;28;20291;-64
2022/12/18 01:47:03;;;;;;;;;;;-7.90;99.90;;;;;;5014500;28;19926;-62
2022/12/18 01:49:31;;;;;;;;;;;-7.90;99.90;;;;;;5008654;28;19932;-62
2022/12/18 01:52:00;;;;;;;;;;;-7.90;99.90;;;;;;4999787;28;19929;-62
2022/12/18 01:54:27;;;;;;;;;;;-7.90;99.90;;;;;;4994432;28;19926;-63
2022/12/18 01:56:55;;;;;;;;;;;-7.90;99.90;;;;;;4994722;28;20364;-63
2022/12/18 01:59:23;;;;;;;;;;;-7.90;99.90;;;;;;4994817;28;19956;-63
2022/12/18 02:01:51;;;;;;;;;;;-7.90;99.90;;;;;;5006095;28;19926;-63
2022/12/18 02:04:20;;;;;;;;;;;-8.00;99.90;;;;;;5013859;28;19926;-64
2022/12/18 02:06:50;;;;;;;;;;;-8.00;99.90;;;;;;5014129;28;19929;-63
2022/12/18 02:09:21;;;;;;;;;;;-8.00;99.90;;;;;;5013598;28;19968;-63
2022/12/18 02:11:53;;;;;;;;;;;-8.00;99.90;;;;;;5013487;28;20403;-62
2022/12/18 02:14:26;;;;;;;;;;;-8.00;99.90;;;;;;5014175;28;19926;-62
2022/12/18 02:16:55;;;;;;;;;;;-8.10;99.90;;;;;;5013405;28;20398;-63
2022/12/18 02:19:35;;;;;;;;;;;-8.00;99.90;;;;;;5004916;28;19930;-63
2022/12/18 02:22:08;;;;;;;;;;;-8.00;99.90;;;;;;4994154;28;19925;-62
2022/12/18 02:24:41;;;;;;;;;;;-8.00;99.90;;;;;;5008383;28;19931;-63
2022/12/18 02:27:11;;;;;;;;;;;-8.00;99.90;;;;;;5013756;28;19935;-63
2022/12/18 02:29:41;;;;;;;;;;;-8.00;99.90;;;;;;5013175;28;20310;-63
2022/12/18 02:32:11;;;;;;;;;;;-7.90;99.90;;;;;;5013477;28;19930;-63
2022/12/18 02:34:39;;;;;;;;;;;-7.80;99.90;;;;;;5013502;28;19971;-63
2022/12/18 02:37:09;;;;;;;;;;;-7.80;99.90;;;;;;5013192;28;19931;-64
2022/12/18 02:39:38;;;;;;;;;;;-7.80;99.90;;;;;;5013175;28;20320;-63
2022/12/18 02:42:07;;;;;;;;;;;-7.80;99.90;;;;;;5013555;28;19932;-63
2022/12/18 02:44:42;;;;;;;;;;;-7.70;99.90;;;;;;5013280;28;19937;-62
2022/12/18 02:47:10;;;;;;;;;;;-7.70;99.90;;;;;;5013590;28;19929;-63
2022/12/18 02:49:42;;;;;;;;;;;-7.60;99.90;;;;;;5012474;28;20569;-62
2022/12/18 02:52:14;;;;;;;;;;;-7.70;99.90;;;;;;5012626;28;19926;-62
2022/12/18 02:54:56;;;;;;;;;;;-7.70;99.90;;;;;;5013186;28;19929;-62
2022/12/18 02:57:28;;;;;;;;;;;-7.80;99.90;;;;;;5013110;28;19932;-63
2022/12/18 03:00:01;;;;;;;;;;;-7.80;99.90;;;;;;5012586;28;19925;-62
2022/12/18 03:02:34;;;;;;;;;;;-7.80;99.90;;;;;;5013233;28;19940;-62
2022/12/18 03:05:06;;;;;;;;;;;-7.90;99.90;;;;;;5012881;28;19925;-63
2022/12/18 03:07:37;;;;;;;;;;;-7.90;99.90;;;;;;5012766;28;20431;-63
2022/12/18 03:10:07;;;;;;;;;;;-7.90;99.90;;;;;;5011912;28;19932;-63
2022/12/18 03:12:36;;;;;;;;;;;-7.90;99.90;;;;;;5012949;28;19971;-63
2022/12/18 03:15:09;;;;;;;;;;;-7.80;99.90;;;;;;5012751;28;19925;-64
2022/12/18 03:17:47;;;;;;;;;;;-7.80;99.90;;;;;;5012975;28;19961;-63
2022/12/18 03:20:15;;;;;;;;;;;-7.70;99.90;;;;;;5011102;28;19929;-63
2022/12/18 03:22:45;;;;;;;;;;;-7.50;99.90;;;;;;4993365;28;19926;-63
2022/12/18 03:25:14;;;;;;;;;;;-7.40;99.90;;;;;;4973449;28;19926;-63
2022/12/18 03:27:44;;;;;;;;;;;-7.20;99.90;;;;;;4992355;28;19934;-63
2022/12/18 03:30:14;;;;;;;;;;;-7.10;99.90;;;;;;4992037;28;20303;-63
2022/12/18 03:32:44;;;;;;;;;;;-7.00;99.90;;;;;;4992974;28;19930;-63
2022/12/18 03:35:13;;;;;;;;;;;-6.90;99.90;;;;;;4992578;28;19926;-63
2022/12/18 03:37:41;;;;;;;;;;;-6.80;99.90;;;;;;4992615;28;19930;-62
2022/12/18 03:40:09;;;;;;;;;;;-6.70;99.90;;;;;;4992107;28;19925;-63
2022/12/18 03:42:40;;;;;;;;;;;-6.60;99.90;;;;;;4992677;28;20383;-63
2022/12/18 03:45:10;;;;;;;;;;;-6.60;99.90;;;;;;4992499;28;19926;-64
2022/12/18 03:47:41;;;;;;;;;;;-6.50;99.90;;;;;;4993007;28;20020;-63
2022/12/18 03:50:12;;;;;;;;;;;-6.50;99.90;;;;;;4991910;28;20310;-63
2022/12/18 03:52:43;;;;;;;;;;;-6.40;99.90;;;;;;4990774;28;19961;-63
2022/12/18 03:55:11;;;;;;;;;;;-6.30;99.90;;;;;;4992580;28;20407;-63
2022/12/18 03:57:40;;;;;;;;;;;-6.20;99.90;;;;;;4992358;28;19930;-63
2022/12/18 04:00:10;;;;;;;;;;;-6.20;99.90;;;;;;4991721;28;20016;-63
2022/12/18 04:02:38;;;;;;;;;;;-6.30;99.90;;;;;;4992443;28;20383;-63
2022/12/18 04:05:09;;;;;;;;;;;-6.30;99.90;;;;;;4992475;28;20316;-63
2022/12/18 04:07:38;;;;;;;;;;;-6.20;99.90;;;;;;4992078;28;19926;-63
2022/12/18 04:10:07;;;;;;;;;;;-6.20;99.90;;;;;;4991532;28;19932;-63
2022/12/18 04:12:35;;;;;;;;;;;-6.20;99.90;;;;;;4992198;28;19932;-63
2022/12/18 04:15:02;;;;;;;;;;;-6.30;99.90;;;;;;4992380;28;19926;-63
2022/12/18 04:17:30;;;;;;;;;;;-6.20;99.90;;;;;;4992055;28;19936;-64
2022/12/18 04:19:58;;;;;;;;;;;-6.30;99.90;;;;;;4991419;28;19930;-64
2022/12/18 04:22:27;;;;;;;;;;;-6.30;99.90;;;;;;4987492;28;19932;-63
2022/12/18 04:24:54;;;;;;;;;;;-6.30;99.90;;;;;;4991668;28;19937;-63
2022/12/18 04:27:22;;;;;;;;;;;-6.30;99.90;;;;;;4992204;28;20395;-63
2022/12/18 04:29:50;;;;;;;;;;;-6.30;99.90;;;;;;4991629;28;19940;-62
2022/12/18 04:32:18;;;;;;;;;;;-6.20;99.90;;;;;;4992171;28;19926;-63
2022/12/18 04:34:45;;;;;;;;;;;-6.10;99.90;;;;;;4991838;28;19936;-62
2022/12/18 04:37:13;;;;;;;;;;;-6.10;99.90;;;;;;4991588;28;19933;-63
2022/12/18 04:39:42;;;;;;;;;;;-6.10;99.90;;;;;;4991375;28;20342;-63
2022/12/18 04:42:10;;;;;;;;;;;-6.10;99.90;;;;;;4995421;28;19930;-63
2022/12/18 04:44:38;;;;;;;;;;;-6.10;99.90;;;;;;4996190;28;19925;-63
2022/12/18 04:47:05;;;;;;;;;;;-6.10;99.90;;;;;;4996109;28;19926;-63
2022/12/18 04:49:33;;;;;;;;;;;-6.10;99.90;;;;;;4995211;28;19926;-63
2022/12/18 04:52:01;;;;;;;;;;;-6.00;99.90;;;;;;4994120;28;19933;-63
2022/12/18 04:54:28;;;;;;;;;;;-6.00;99.90;;;;;;4995859;28;19952;-63
2022/12/18 04:56:57;;;;;;;;;;;-6.00;99.90;;;;;;4995770;28;19926;-64
2022/12/18 04:59:25;;;;;;;;;;;-6.00;99.90;;;;;;4995777;28;19925;-63
2022/12/18 05:01:53;;;;;;;;;;;-6.00;99.90;;;;;;4995405;28;19926;-63
2022/12/18 05:04:21;;;;;;;;;;;-5.90;99.90;;;;;;4995433;28;19965;-62
2022/12/18 05:06:49;;;;;;;;;;;-6.00;99.90;;;;;;4995214;28;20401;-63
2022/12/18 05:09:16;;;;;;;;;;;-5.90;99.90;;;;;;4995509;28;19962;-63
2022/12/18 05:11:46;;;;;;;;;;;-5.90;99.90;;;;;;4994920;28;19925;-62
2022/12/18 05:14:15;;;;;;;;;;;-6.00;99.90;;;;;;4995629;28;20383;-63
2022/12/18 05:16:43;;;;;;;;;;;-6.00;99.90;;;;;;4995376;28;19932;-63
2022/12/18 05:19:12;;;;;;;;;;;-5.90;99.90;;;;;;4995391;28;19933;-63
2022/12/18 05:21:40;;;;;;;;;;;-5.90;99.90;;;;;;4991634;28;20310;-63
2022/12/18 05:24:07;;;;;;;;;;;-5.90;99.90;;;;;;4986748;28;20011;-63
2022/12/18 05:26:35;;;;;;;;;;;-5.90;99.90;;;;;;4993547;28;20346;-63
2022/12/18 05:29:03;;;;;;;;;;;-5.90;99.90;;;;;;4994541;28;19945;-63
2022/12/18 05:31:32;;;;;;;;;;;-5.80;99.90;;;;;;4994386;28;19934;-63
2022/12/18 05:34:06;;;;;;;;;;;-5.80;99.90;;;;;;4988207;28;19972;-63
2022/12/18 05:36:34;;;;;;;;;;;-5.70;99.90;;;;;;4993790;28;20299;-63
2022/12/18 05:39:01;;;;;;;;;;;-5.70;99.90;;;;;;4995154;28;19926;-63
2022/12/18 05:41:29;;;;;;;;;;;-5.60;99.90;;;;;;4994167;28;19926;-62
2022/12/18 05:43:57;;;;;;;;;;;-5.70;99.90;;;;;;4994882;28;19932;-63
2022/12/18 05:46:25;;;;;;;;;;;-5.70;99.90;;;;;;4994771;28;19926;-63
2022/12/18 05:48:54;;;;;;;;;;;-5.70;99.90;;;;;;4994728;28;20387;-63
2022/12/18 05:51:22;;;;;;;;;;;-5.70;99.90;;;;;;4982491;28;20040;-63
2022/12/18 05:53:53;;;;;;;;;;;-5.80;99.90;;;;;;4982678;28;19992;-63
2022/12/18 05:56:21;;;;;;;;;;;-5.80;99.90;;;;;;4994058;28;19930;-64
2022/12/18 05:58:52;;;;;;;;;;;-6.00;99.90;;;;;;4993797;28;19985;-63
2022/12/18 06:01:21;;;;;;;;;;;-6.20;99.90;;;;;;4993683;28;20318;-63
2022/12/18 06:03:49;;;;;;;;;;;-6.30;99.90;;;;;;4994033;28;19930;-63
2022/12/18 06:06:19;;;;;;;;;;;-6.50;99.90;;;;;;4994208;28;19980;-63
2022/12/18 06:08:47;;;;;;;;;;;-6.60;99.90;;;;;;4993683;28;20458;-63
2022/12/18 06:11:17;;;;;;;;;;;-6.80;99.90;;;;;;4993300;28;20021;-63
2022/12/18 06:13:46;;;;;;;;;;;-6.90;99.90;;;;;;4991525;28;19934;-63
2022/12/18 06:16:13;;;;;;;;;;;-7.10;99.90;;;;;;4993208;28;20016;-63
2022/12/18 06:18:41;;;;;;;;;;;-7.10;99.90;;;;;;4990075;28;20086;-62
2022/12/18 06:21:09;;;;;;;;;;;-7.20;99.90;;;;;;4991216;28;20016;-63
2022/12/18 06:23:38;;;;;;;;;;;-7.20;99.90;;;;;;5020050;23;19935;-63
2022/12/18 06:26:07;;;;;;;;;;;-7.20;99.90;;;;;;5031323;28;19939;-64
2022/12/18 06:28:35;;;;;;;;;;;-7.10;99.90;;;;;;5032835;28;19931;-64
2022/12/18 06:31:03;;;;;;;;;;;-7.20;99.90;;;;;;5032166;28;20429;-64
2022/12/18 06:33:31;;;;;;;;;;;-7.10;99.90;;;;;;5032535;28;19929;-63
2022/12/18 06:36:00;;;;;;;;;;;-7.10;99.90;;;;;;5032148;28;19925;-63
2022/12/18 06:38:28;;;;;;;;;;;-7.00;99.90;;;;;;5032671;28;19932;-63
2022/12/18 06:40:57;;;;;;;;;;;-7.00;99.90;;;;;;5031897;28;19954;-63
2022/12/18 06:43:25;;;;;;;;;;;-7.00;99.90;;;;;;5031970;28;20369;-63
2022/12/18 06:45:58;;;;;;;;;;;-6.90;99.90;;;;;;5031314;28;19952;-64
2022/12/18 06:48:26;;;;;;;;;;;-6.90;99.90;;;;;;5029490;28;20011;-63
2022/12/18 06:50:54;;;;;;;;;;;-6.90;99.90;;;;;;5030977;28;19929;-62
2022/12/18 06:53:21;;;;;;;;;;;-6.80;99.90;;;;;;5030028;28;19931;-64
2022/12/18 06:55:49;;;;;;;;;;;-6.70;99.90;;;;;;5033992;28;19931;-63
2022/12/18 06:58:18;;;;;;;;;;;-6.70;99.90;;;;;;5034776;28;20370;-63
2022/12/18 07:00:46;;;;;;;;;;;-6.70;99.90;;;;;;5034066;28;19925;-63
2022/12/18 07:03:14;;;;;;;;;;;-6.60;99.90;;;;;;5038536;28;19929;-63
2022/12/18 07:05:41;;;;;;;;;;;-6.60;99.90;;;;;;5031444;28;19928;-63
2022/12/18 07:08:09;;;;;;;;;;;-6.50;99.90;;;;;;5034300;28;19931;-63
2022/12/18 07:10:41;;;;;;;;;;;-6.50;99.90;;;;;;5028337;28;20475;-63
2022/12/18 07:13:14;;;;;;;;;;;-6.50;99.90;;;;;;5030528;28;19940;-63
2022/12/18 07:15:43;;;;;;;;;;;-6.60;99.90;;;;;;5033444;28;19929;-63
2022/12/18 07:18:11;;;;;;;;;;;-6.50;99.90;;;;;;5037720;28;19925;-62
2022/12/18 07:20:40;;;;;;;;;;;-6.50;99.90;;;;;;5034428;28;20416;-63
2022/12/18 07:23:08;;;;;;;;;;;-6.60;99.90;;;;;;5035632;28;19929;-64
2022/12/18 07:25:35;;;;;;;;;;;-6.60;99.90;;;;;;5028695;28;19931;-64
2022/12/18 07:28:03;;;;;;;;;;;-6.60;99.90;;;;;;5031472;28;19932;-64
2022/12/18 07:30:31;;;;;;;;;;;-6.60;99.90;;;;;;5030865;28;19932;-64
2022/12/18 07:33:00;;;;;;;;;;;-6.60;99.90;;;;;;5037813;28;19931;-63
2022/12/18 07:35:28;;;;;;;;;;;-6.60;99.90;;;;;;5033771;28;19932;-63
2022/12/18 07:37:56;;;;;;;;;;;-6.60;99.90;;;;;;5037778;28;19952;-64
2022/12/18 07:40:23;;;;;;;;;;;-6.50;99.90;;;;;;5029286;28;19931;-64
2022/12/18 07:42:51;;;;;;;;;;;-6.50;99.90;;;;;;5032013;28;19929;-66
2022/12/18 07:45:19;;;;;;;;;;;-6.40;99.90;;;;;;5027689;28;19925;-62
2022/12/18 07:47:46;;;;;;;;;;;-6.40;99.90;;;;;;5036419;28;19933;-63
2022/12/18 07:50:16;;;;;;;;;;;-6.30;99.90;;;;;;5030451;28;19932;-63
2022/12/18 07:52:43;;;;;;;;;;;-6.20;99.90;;;;;;5026997;28;19931;-63
2022/12/18 07:55:11;;;;;;;;;;;-6.00;99.90;;;;;;5033260;28;19925;-64
2022/12/18 07:57:39;;;;;;;;;;;-5.90;99.90;;;;;;5030230;28;19929;-63
2022/12/18 08:00:27;;;;;;;;;;;-5.70;99.90;;;;;;5027421;28;20002;-63
2022/12/18 08:02:54;;;;;;;;;;;-5.50;99.90;;;;;;5036125;28;19925;-63
2022/12/18 08:05:24;;;;;;;;;;;-5.40;99.90;;;;;;5028294;28;19928;-63
2022/12/18 08:07:51;;;;;;;;;;;-5.30;99.90;;;;;;5030392;28;19933;-63
2022/12/18 08:10:19;;;;;;;;;;;-5.30;99.90;;;;;;5025656;28;19925;-63
2022/12/18 08:12:49;;;;;;;;;;;-5.10;99.90;;;;;;5028985;28;19932;-63
2022/12/18 08:15:17;;;;;;;;;;;-4.90;99.90;;;;;;5030725;28;19952;-64
2022/12/18 08:17:45;;;;;;;;;;;-4.50;99.90;;;;;;5035286;28;20405;-63
2022/12/18 08:20:13;;;;;;;;;;;-4.30;99.90;;;;;;5027672;28;19940;-62
2022/12/18 08:22:43;;;;;;;;;;;-4.20;99.90;;;;;;5027428;28;19931;-62
2022/12/18 08:25:10;;;;;;;;;;;-4.10;99.90;;;;;;5027769;28;19932;-64
2022/12/18 08:27:38;;;;;;;;;;;-4.00;99.90;;;;;;5028089;28;19925;-63
2022/12/18 08:30:06;;;;;;;;;;;-3.80;99.90;;;;;;5024508;28;19931;-63
2022/12/18 08:32:34;;;;;;;;;;;-3.80;99.90;;;;;;5038090;28;19924;-64
2022/12/18 08:35:02;;;;;;;;;;;-3.70;99.90;;;;;;5027001;28;19929;-63
2022/12/18 08:37:30;;;;;;;;;;;-3.60;99.90;;;;;;5031681;28;19925;-63
2022/12/18 08:39:59;;;;;;;;;;;-3.60;99.90;;;;;;5028305;28;19929;-63
2022/12/18 08:45:12;;;;;;;;;;;-3.40;99.90;;;;;;5033994;28;20348;-63
2022/12/18 08:47:39;;;;;;;;;;;-3.20;99.90;;;;;;5030864;28;19933;-63
2022/12/18 08:50:07;;;;;;;;;;;-3.20;99.90;;;;;;5026829;28;20305;-63
2022/12/18 08:52:35;;;;;;;;;;;-3.20;99.90;;;;;;5037604;28;20279;-63
2022/12/18 08:55:05;;;;;;;;;;;-2.90;99.90;;;;;;5027294;28;20598;-63
2022/12/18 08:57:33;;;;;;;;;;;-2.70;99.90;;;;;;5027694;28;19940;-63
2022/12/18 09:00:00;;;;;;;;;;;-2.40;99.90;;;;;;5028558;28;20389;-62
2022/12/18 09:02:29;;;;;;;;;;;-2.00;99.90;;;;;;5027635;28;19940;-64
2022/12/18 09:04:57;;;;;;;;;;;-1.80;99.90;;;;;;5028296;28;20036;-63
2022/12/18 09:07:24;;;;;;;;;;;-1.70;99.90;;;;;;5038358;28;19929;-63
2022/12/18 09:09:52;;;;;;;;;;;-1.60;99.90;;;;;;5029167;28;19931;-63
2022/12/18 09:12:21;;;;;;;;;;;-1.60;99.90;;;;;;5040012;28;20032;-63
2022/12/18 09:14:49;;;;;;;;;;;-1.50;99.90;;;;;;5030262;28;20404;-63
2022/12/18 09:17:17;;;;;;;;;;;-1.40;99.90;;;;;;5027047;28;19925;-63
2022/12/18 09:19:45;;;;;;;;;;;-1.40;99.90;;;;;;5029383;28;20409;-63
2022/12/18 09:22:12;;;;;;;;;;;-1.30;99.90;;;;;;5029934;28;19931;-63
2022/12/18 09:24:40;;;;;;;;;;;-1.40;99.90;;;;;;5029229;28;20390;-63
2022/12/18 09:27:08;;;;;;;;;;;-1.20;99.90;;;;;;5036856;28;20095;-63
2022/12/18 09:29:37;;;;;;;;;;;-1.20;99.90;;;;;;5032185;28;19933;-63
2022/12/18 09:32:05;;;;;;;;;;;-1.00;99.90;;;;;;5032373;28;19935;-63
2022/12/18 09:34:32;;;;;;;;;;;-1.10;99.90;;;;;;5032712;28;20309;-63
2022/12/18 09:37:00;;;;;;;;;;;-1.10;99.90;;;;;;5027748;28;20409;-63
2022/12/18 09:39:28;;;;;;;;;;;-1.10;99.90;;;;;;5032781;28;19959;-62
2022/12/18 09:41:57;;;;;;;;;;;-1.00;99.90;;;;;;5033020;28;19925;-63
2022/12/18 09:44:26;;;;;;;;;;;-0.90;99.90;;;;;;5030254;28;19929;-63
2022/12/18 09:47:00;;;;;;;;;;;-1.00;99.90;;;;;;5036314;28;20382;-63
2022/12/18 09:49:29;;;;;;;;;;;-1.10;99.90;;;;;;5035116;28;19931;-62
2022/12/18 09:51:59;;;;;;;;;;;-0.90;99.90;;;;;;5033776;28;20409;-63
2022/12/18 09:54:34;;;;;;;;;;;-1.00;99.90;;;;;;5031938;28;19939;-63
2022/12/18 09:57:02;;;;;;;;;;;-1.10;99.90;;;;;;5031989;28;19936;-63
2022/12/18 09:59:32;;;;;;;;;;;-1.10;99.90;;;;;;5033737;28;20381;-63
2022/12/18 10:02:11;;;;;;;;;;;-1.30;99.90;;;;;;5032756;28;19925;-63
2022/12/18 10:04:40;;;;;;;;;;;-1.30;99.90;;;;;;5031332;28;20071;-63
2022/12/18 10:07:10;;;;;;;;;;;-1.40;99.90;;;;;;5036914;28;19929;-63
2022/12/18 10:09:39;;;;;;;;;;;-1.50;99.90;;;;;;5028766;28;19933;-63
2022/12/18 10:12:09;;;;;;;;;;;-1.50;99.90;;;;;;5040197;28;19925;-63
2022/12/18 10:14:42;;;;;;;;;;;-1.40;99.90;;;;;;5024105;28;20023;-63
2022/12/18 10:17:15;;;;;;;;;;;-1.40;99.90;;;;;;5039226;28;19936;-63
2022/12/18 10:19:49;;;;;;;;;;;-1.20;99.90;;;;;;5028991;28;20313;-63
2022/12/18 10:22:24;;;;;;;;;;;-1.10;99.90;;;;;;5031478;28;20546;-62
2022/12/18 10:24:56;;;;;;;;;;;-0.90;99.90;;;;;;5032375;28;19929;-63
2022/12/18 10:27:26;;;;;;;;;;;-0.70;99.90;;;;;;5037430;28;19937;-63
2022/12/18 10:29:54;;;;;;;;;;;-0.90;99.90;;;;;;5029245;28;19930;-62
2022/12/18 10:32:24;;;;;;;;;;;-0.80;99.90;;;;;;5032861;28;19935;-63
2022/12/18 10:34:53;;;;;;;;;;;-0.80;99.90;;;;;;5027034;28;19935;-63
2022/12/18 10:37:28;;;;;;;;;;;-0.90;99.90;;;;;;5037788;28;20305;-63
2022/12/18 10:40:07;;;;;;;;;;;-1.10;99.90;;;;;;5028372;28;20716;-63
2022/12/18 10:42:35;;;;;;;;;;;-1.20;99.90;;;;;;5036389;28;19933;-63
2022/12/18 10:45:04;;;;;;;;;;;-1.40;99.90;;;;;;5038361;28;20321;-63
2022/12/18 10:47:34;;;;;;;;;;;-1.50;99.90;;;;;;5033414;28;19933;-62
2022/12/18 10:50:02;;;;;;;;;;;-1.60;99.90;;;;;;5027272;28;19948;-63
2022/12/18 10:52:29;;;;;;;;;;;-1.80;99.90;;;;;;5022947;28;20640;-63
2022/12/18 10:54:59;;;;;;;;;;;-1.80;99.90;;;;;;5034406;28;20032;-63
2022/12/18 10:57:35;;;;;;;;;;;-2.10;99.90;;;;;;5033784;28;19935;-63
2022/12/18 11:00:21;;;;;;;;;;;-2.00;99.90;;;;;;5030808;28;19925;-63
2022/12/18 11:02:51;;;;;;;;;;;-1.90;99.90;;;;;;5026094;28;20028;-63
2022/12/18 11:05:26;;;;;;;;;;;-1.80;99.90;;;;;;5032621;28;19929;-63
2022/12/18 11:07:55;;;;;;;;;;;-1.80;99.90;;;;;;5033735;28;19925;-63
2022/12/18 11:10:23;;;;;;;;;;;-1.70;99.90;;;;;;5031226;28;20387;-63
2022/12/18 11:12:51;;;;;;;;;;;-1.70;99.90;;;;;;5032112;28;20040;-63
2022/12/18 11:15:20;;;;;;;;;;;-1.70;99.90;;;;;;5033420;28;19935;-62
2022/12/18 11:17:49;;;;;;;;;;;-1.90;99.90;;;;;;5038087;28;20370;-62
2022/12/18 11:20:34;;;;;;;;;;;-1.90;99.90;;;;;;5031293;28;20048;-63
2022/12/18 11:23:06;;;;;;;;;;;-2.20;99.90;;;;;;5027446;28;19987;-62
2022/12/18 11:25:34;;;;;;;;;;;-2.40;99.90;;;;;;5029530;28;19925;-62
2022/12/18 11:28:04;;;;;;;;;;;-2.60;99.90;;;;;;5039989;28;19925;-63
2022/12/18 11:30:33;;;;;;;;;;;-2.80;99.90;;;;;;5031368;28;19941;-64
2022/12/18 11:33:04;;;;;;;;;;;-2.80;99.90;;;;;;5029224;28;19937;-63
2022/12/18 11:35:36;;;;;;;;;;;-2.80;99.90;;;;;;5031751;28;19925;-64
2022/12/18 11:38:11;;;;;;;;;;;-2.80;99.90;;;;;;5039235;28;19925;-64
2022/12/18 11:40:42;;;;;;;;;;;-2.80;99.90;;;;;;5030144;28;19933;-63
2022/12/18 11:43:12;;;;;;;;;;;-2.70;99.90;;;;;;5029669;28;19947;-62
2022/12/18 11:45:43;;;;;;;;;;;-2.60;99.90;;;;;;5032513;28;20382;-62
2022/12/18 11:48:15;;;;;;;;;;;-2.70;99.90;;;;;;5029247;28;19929;-62
2022/12/18 11:50:47;;;;;;;;;;;-2.60;99.90;;;;;;5030354;28;19925;-62
2022/12/18 11:53:16;;;;;;;;;;;-2.70;99.90;;;;;;5025574;28;19926;-62
2022/12/18 11:55:50;;;;;;;;;;;-2.90;99.90;;;;;;5026195;28;19931;-63
2022/12/18 11:58:24;;;;;;;;;;;-3.00;99.90;;;;;;5037421;28;20384;-62
2022/12/18 12:01:00;;;;;;;;;;;-3.00;99.90;;;;;;5029042;28;20373;-62
2022/12/18 12:03:40;;;;;;;;;;;-3.00;99.90;;;;;;5038748;28;19933;-63
2022/12/18 12:06:14;;;;;;;;;;;-3.10;99.90;;;;;;5025697;28;19925;-63
2022/12/18 12:08:48;;;;;;;;;;;-3.10;99.90;;;;;;5034016;28;19935;-63
2022/12/18 12:11:22;;;;;;;;;;;-3.10;99.90;;;;;;5036783;28;19931;-63
2022/12/18 12:13:56;;;;;;;;;;;-3.00;99.90;;;;;;5030339;28;19929;-63
2022/12/18 12:16:29;;;;;;;;;;;-3.10;99.90;;;;;;5029721;28;19929;-63
2022/12/18 12:19:07;;;;;;;;;;;-3.00;99.90;;;;;;5030426;28;19925;-63
2022/12/18 12:21:39;;;;;;;;;;;-3.00;99.90;;;;;;5028750;28;20409;-63
2022/12/18 12:24:16;;;;;;;;;;;-3.10;99.90;;;;;;5050281;23;19927;-62
2022/12/18 12:26:49;;;;;;;;;;;-3.20;99.90;;;;;;5047373;28;19929;-63
2022/12/18 12:29:27;;;;;;;;;;;-3.10;99.90;;;;;;5049065;28;19925;-63
2022/12/18 12:32:00;;;;;;;;;;;-3.20;99.90;;;;;;5046180;28;19929;-63
2022/12/18 12:34:32;;;;;;;;;;;-3.20;99.90;;;;;;5041392;28;19964;-64
2022/12/18 12:37:09;;;;;;;;;;;-3.20;99.90;;;;;;5048042;28;20013;-62
2022/12/18 12:39:38;;;;;;;;;;;-3.20;99.90;;;;;;5043659;28;19929;-63
2022/12/18 12:45:00;;;;;;;;;;;-3.10;99.90;;;;;;5039922;28;19939;-63
2022/12/18 12:47:29;;;;;;;;;;;-3.00;99.90;;;;;;5048841;28;19990;-63
2022/12/18 12:49:59;;;;;;;;;;;-3.00;99.90;;;;;;5047696;28;20425;-63
2022/12/18 12:52:30;;;;;;;;;;;-2.90;99.90;;;;;;5049269;28;19929;-63
2022/12/18 12:55:00;;;;;;;;;;;-2.90;99.90;;;;;;5046830;28;19990;-63
2022/12/18 12:57:31;;;;;;;;;;;-3.00;99.90;;;;;;5049982;28;19928;-63
2022/12/18 13:00:02;;;;;;;;;;;-3.00;99.90;;;;;;5047698;28;19975;-63
2022/12/18 13:02:33;;;;;;;;;;;-3.00;99.90;;;;;;5048022;28;19925;-62
2022/12/18 13:05:04;;;;;;;;;;;-2.90;99.90;;;;;;5049734;28;19945;-63
2022/12/18 13:07:36;;;;;;;;;;;-3.00;99.90;;;;;;5048876;28;19933;-63
2022/12/18 13:10:24;;;;;;;;;;;-2.90;99.90;;;;;;5052207;28;19933;-62
2022/12/18 13:12:55;;;;;;;;;;;-2.90;99.90;;;;;;5045756;28;19929;-63
2022/12/18 13:15:25;;;;;;;;;;;-2.90;99.90;;;;;;5052050;28;19935;-63
2022/12/18 13:18:04;;;;;;;;;;;-3.00;99.90;;;;;;5047058;28;20305;-63
2022/12/18 13:20:34;;;;;;;;;;;-2.90;99.90;;;;;;5051481;28;19925;-63
2022/12/18 13:23:19;;;;;;;;;;;-3.00;99.90;;;;;;5049125;28;19931;-63
2022/12/18 13:25:50;;;;;;;;;;;-3.00;99.90;;;;;;5044857;28;19931;-63
2022/12/18 13:28:21;;;;;;;;;;;-3.00;99.90;;;;;;5051164;28;19931;-63
2022/12/18 13:30:50;;;;;;;;;;;-3.00;99.90;;;;;;5050329;28;20064;-63
2022/12/18 13:33:37;;;;;;;;;;;-2.90;99.90;;;;;;5053357;28;19971;-63
2022/12/18 13:36:30;;;;;;;;;;;-2.90;99.90;;;;;;5048516;28;19929;-63
2022/12/18 13:39:26;;;;;;;;;;;-2.90;99.90;;;;;;5052404;28;20302;-63
2022/12/18 13:45:22;;;;;;;;;;;-3.00;99.90;;;;;;5042046;28;19941;-63
2022/12/18 13:47:50;;;;;;;;;;;-3.10;99.90;;;;;;5046048;28;19932;-63
2022/12/18 13:50:23;;;;;;;;;;;-3.20;99.90;;;;;;5050471;28;19960;-63
2022/12/18 13:52:51;;;;;;;;;;;-3.20;99.90;;;;;;5050061;28;20424;-63
2022/12/18 13:55:20;;;;;;;;;;;-3.20;99.90;;;;;;5048316;28;19943;-63
2022/12/18 13:57:48;;;;;;;;;;;-3.20;99.90;;;;;;5050961;28;20337;-63
2022/12/18 14:00:28;;;;;;;;;;;-3.20;99.90;;;;;;5048993;28;19932;-63
2022/12/18 14:02:56;;;;;;;;;;;-3.20;99.90;;;;;;5043697;28;19928;-63
2022/12/18 14:05:24;;;;;;;;;;;-3.20;99.90;;;;;;5047888;28;19924;-63
2022/12/18 14:07:52;;;;;;;;;;;-3.20;99.90;;;;;;5050167;28;19936;-63
2022/12/18 14:10:21;;;;;;;;;;;-3.20;99.90;;;;;;5048523;28;19940;-63
2022/12/18 14:13:10;;;;;;;;;;;-3.20;99.90;;;;;;5046978;28;20321;-63
2022/12/18 14:15:42;;;;;;;;;;;-3.20;99.90;;;;;;5049906;28;20533;-63
2022/12/18 14:18:18;;;;;;;;;;;-3.20;99.90;;;;;;5044866;28;19925;-63
2022/12/18 14:20:46;;;;;;;;;;;-3.20;99.90;;;;;;5049932;28;19931;-63
2022/12/18 14:23:26;;;;;;;;;;;-3.30;99.90;;;;;;5043526;28;19986;-62
2022/12/18 14:25:54;;;;;;;;;;;-3.30;99.90;;;;;;5039196;28;20297;-63
2022/12/18 14:28:26;;;;;;;;;;;-3.30;99.90;;;;;;5048053;28;19924;-63
2022/12/18 14:30:56;;;;;;;;;;;-3.40;99.90;;;;;;5046630;28;19924;-63
2022/12/18 14:33:24;;;;;;;;;;;-3.40;99.90;;;;;;5051934;28;20035;-62
2022/12/18 14:35:57;;;;;;;;;;;-3.30;99.90;;;;;;5048219;28;19932;-62
2022/12/18 14:38:26;;;;;;;;;;;-3.30;99.90;;;;;;5042887;28;19924;-63
2022/12/18 14:41:01;;;;;;;;;;;-3.40;99.90;;;;;;5047886;28;19925;-63
2022/12/18 14:43:30;;;;;;;;;;;-3.40;99.90;;;;;;5051271;28;19952;-63
2022/12/18 14:45:59;;;;;;;;;;;-3.30;99.90;;;;;;5048941;28;20023;-63